Time;durP1;ratioP1;P1;durP2;ratioP2;P2;SDS_P1;SDS_P2;PMS_P1;PMS_P2;Temp;Humidity;BMP_temperature;BMP_pressure;BME280_temperature;BME280_humidity;BME280_pressure;Samples;Min_cycle;Max_cycle;Signal;HPM_P1;HPM_P2
2022/03/11 00:01:07;;;;;;;13.63;10.70;;;1.60;44.20;;;;;;4971491;28;20227;-52
2022/03/11 00:03:33;;;;;;;11.25;10.15;;;1.60;44.30;;;;;;4981912;28;20176;-57
2022/03/11 00:05:58;;;;;;;11.33;10.13;;;1.50;44.20;;;;;;4988088;28;20184;-57
2022/03/11 00:08:24;;;;;;;12.27;10.97;;;1.50;44.70;;;;;;4988835;28;20180;-54
2022/03/11 00:10:50;;;;;;;11.17;9.97;;;1.40;44.50;;;;;;4989549;28;20184;-56
2022/03/11 00:13:15;;;;;;;10.40;9.33;;;1.40;44.50;;;;;;4986275;28;20832;-56
2022/03/11 00:15:42;;;;;;;12.47;10.17;;;1.40;44.20;;;;;;4988662;28;20184;-57
2022/03/11 00:18:08;;;;;;;10.13;9.20;;;1.40;44.40;;;;;;4988572;28;20578;-56
2022/03/11 00:20:34;;;;;;;10.73;9.57;;;1.40;44.20;;;;;;4989340;28;20188;-57
2022/03/11 00:22:59;;;;;;;10.60;9.33;;;1.40;44.50;;;;;;4987009;28;20935;-56
2022/03/11 00:25:25;;;;;;;15.43;11.03;;;1.40;44.50;;;;;;4987410;28;20432;-56
2022/03/11 00:27:51;;;;;;;13.33;10.57;;;1.30;44.30;;;;;;4989390;28;20219;-55
2022/03/11 00:30:17;;;;;;;10.80;9.37;;;1.30;44.70;;;;;;4988809;28;20189;-56
2022/03/11 00:32:43;;;;;;;11.07;10.07;;;1.30;44.80;;;;;;4987212;28;20267;-55
2022/03/11 00:35:11;;;;;;;10.20;9.10;;;1.30;44.70;;;;;;4990627;28;20651;-57
2022/03/11 00:37:37;;;;;;;11.18;10.07;;;1.20;44.90;;;;;;4987836;28;20478;-55
2022/03/11 00:40:04;;;;;;;11.10;10.02;;;1.20;44.50;;;;;;4989556;28;20199;-57
2022/03/11 00:42:30;;;;;;;10.75;9.75;;;1.20;44.30;;;;;;4987656;28;20189;-57
2022/03/11 00:44:55;;;;;;;11.77;10.63;;;1.20;44.70;;;;;;4989946;28;20607;-56
2022/03/11 00:47:21;;;;;;;11.90;10.20;;;1.10;44.60;;;;;;4994905;28;20662;-58
2022/03/11 00:49:46;;;;;;;11.47;10.33;;;1.10;44.90;;;;;;4991230;28;20176;-54
2022/03/11 00:52:12;;;;;;;10.17;9.17;;;1.10;45.40;;;;;;4989084;28;20215;-54
2022/03/11 00:54:37;;;;;;;10.70;9.70;;;1.00;45.00;;;;;;4988073;28;20216;-57
2022/03/11 00:57:03;;;;;;;11.43;10.13;;;1.00;45.20;;;;;;4988980;28;20277;-58
2022/03/11 00:59:28;;;;;;;10.20;9.17;;;0.90;45.30;;;;;;4987967;28;20191;-56
2022/03/11 01:01:54;;;;;;;10.43;9.30;;;0.90;45.70;;;;;;4989503;28;20661;-59
2022/03/11 01:04:20;;;;;;;12.37;10.17;;;0.90;44.60;;;;;;4989543;28;20177;-57
2022/03/11 01:06:45;;;;;;;11.30;10.20;;;0.90;44.70;;;;;;4990937;28;20266;-55
2022/03/11 01:09:11;;;;;;;10.70;9.60;;;0.90;44.80;;;;;;4992470;28;20699;-57
2022/03/11 01:11:37;;;;;;;10.77;9.67;;;0.90;45.00;;;;;;4991853;28;20194;-58
2022/03/11 01:14:03;;;;;;;10.23;9.30;;;0.90;44.80;;;;;;4990390;28;21914;-57
2022/03/11 01:16:29;;;;;;;11.00;9.52;;;0.90;45.70;;;;;;4992389;28;20505;-54
2022/03/11 01:18:54;;;;;;;12.70;9.97;;;0.90;45.30;;;;;;4992464;28;20440;-57
2022/03/11 01:21:20;;;;;;;11.03;9.80;;;0.90;44.80;;;;;;4984664;28;20462;-56
2022/03/11 01:23:46;;;;;;;10.67;9.43;;;0.80;44.60;;;;;;4989890;28;20208;-56
2022/03/11 01:26:12;;;;;;;11.83;9.80;;;0.80;44.60;;;;;;4991294;28;20625;-55
2022/03/11 01:28:41;;;;;;;9.73;8.82;;;0.70;45.00;;;;;;4991497;28;21007;-56
2022/03/11 01:31:08;;;;;;;11.13;9.95;;;0.70;45.00;;;;;;4987736;28;20181;-56
2022/03/11 01:33:33;;;;;;;10.32;8.93;;;0.70;45.40;;;;;;4991906;28;20180;-59
2022/03/11 01:35:59;;;;;;;10.80;9.63;;;0.70;45.00;;;;;;4992095;28;20184;-56
2022/03/11 01:38:24;;;;;;;11.50;9.43;;;0.70;44.70;;;;;;4991687;28;20648;-57
2022/03/11 01:40:50;;;;;;;10.43;9.40;;;0.70;45.20;;;;;;4989987;28;20182;-57
2022/03/11 01:43:17;;;;;;;10.97;9.87;;;0.60;45.30;;;;;;4990329;28;20331;-57
2022/03/11 01:45:43;;;;;;;11.77;9.70;;;0.60;45.20;;;;;;4992413;28;20212;-54
2022/03/11 01:48:10;;;;;;;10.73;9.57;;;0.50;44.90;;;;;;4995385;28;20237;-57
2022/03/11 01:50:40;;;;;;;11.57;10.45;;;0.50;45.20;;;;;;4996214;28;20520;-54
2022/03/11 01:53:10;;;;;;;11.13;10.13;;;0.50;45.70;;;;;;4999845;28;20242;-57
2022/03/11 01:55:37;;;;;;;10.60;9.50;;;0.50;45.30;;;;;;4990036;28;20203;-54
2022/03/11 01:58:04;;;;;;;11.02;9.52;;;0.50;44.70;;;;;;4991507;28;20646;-57
2022/03/11 02:00:30;;;;;;;10.68;9.45;;;0.50;44.40;;;;;;4990903;28;20499;-57
2022/03/11 02:02:56;;;;;;;10.88;9.70;;;0.50;44.00;;;;;;4980530;28;20189;-53
2022/03/11 02:05:22;;;;;;;11.07;8.93;;;0.50;43.70;;;;;;4991771;28;20550;-56
2022/03/11 02:07:49;;;;;;;10.60;9.57;;;0.50;43.30;;;;;;4990429;28;20200;-51
2022/03/11 02:10:15;;;;;;;10.07;9.07;;;0.50;43.50;;;;;;4993183;28;20234;-55
2022/03/11 02:12:42;;;;;;;11.70;9.67;;;0.50;43.60;;;;;;4989496;28;20283;-55
2022/03/11 02:15:09;;;;;;;10.40;9.15;;;0.40;43.80;;;;;;4990172;28;20859;-53
2022/03/11 02:17:35;;;;;;;11.10;9.48;;;0.40;44.00;;;;;;4990699;28;20216;-56
2022/03/11 02:20:00;;;;;;;10.30;9.30;;;0.40;43.70;;;;;;4991131;28;20203;-56
2022/03/11 02:22:27;;;;;;;11.00;9.80;;;0.40;43.70;;;;;;4989296;28;20910;-56
2022/03/11 02:24:53;;;;;;;11.18;9.25;;;0.30;43.60;;;;;;4991799;28;20189;-55
2022/03/11 02:27:20;;;;;;;10.80;9.50;;;0.30;43.70;;;;;;4990756;28;20188;-53
2022/03/11 02:29:45;;;;;;;11.52;9.02;;;0.30;43.40;;;;;;4990313;28;20766;-55
2022/03/11 02:32:11;;;;;;;11.07;9.20;;;0.30;43.30;;;;;;4991414;28;20274;-55
2022/03/11 02:34:38;;;;;;;10.70;9.60;;;0.30;43.70;;;;;;4984400;28;20180;-54
2022/03/11 02:37:04;;;;;;;13.63;10.38;;;0.20;43.40;;;;;;4988589;28;20471;-58
2022/03/11 02:39:30;;;;;;;10.98;9.88;;;0.20;43.10;;;;;;4990606;28;20188;-57
2022/03/11 02:41:57;;;;;;;10.90;9.73;;;0.30;43.40;;;;;;4990724;28;20191;-55
2022/03/11 02:44:23;;;;;;;11.50;10.30;;;0.20;43.40;;;;;;4988863;28;20307;-54
2022/03/11 02:46:49;;;;;;;10.10;9.00;;;0.20;43.50;;;;;;4990312;28;20276;-54
2022/03/11 02:49:15;;;;;;;10.07;9.07;;;0.20;43.90;;;;;;4991187;28;20443;-57
2022/03/11 02:51:40;;;;;;;10.53;9.40;;;0.30;43.40;;;;;;4984924;28;20184;-56
2022/03/11 02:54:06;;;;;;;12.90;10.17;;;0.30;43.60;;;;;;4989804;28;20627;-56
2022/03/11 02:56:31;;;;;;;11.13;9.93;;;0.20;43.30;;;;;;4989195;28;21003;-55
2022/03/11 02:58:57;;;;;;;12.17;10.10;;;0.20;43.20;;;;;;4989563;28;20195;-54
2022/03/11 03:01:22;;;;;;;13.13;10.40;;;0.10;42.70;;;;;;4987974;28;20675;-56
2022/03/11 03:03:48;;;;;;;11.23;9.90;;;0.10;42.80;;;;;;4971099;28;20467;-56
2022/03/11 03:06:13;;;;;;;10.93;9.30;;;0.20;42.70;;;;;;4990079;28;20583;-60
2022/03/11 03:08:39;;;;;;;12.67;10.10;;;0.10;42.80;;;;;;4990653;28;20647;-56
2022/03/11 03:11:05;;;;;;;11.27;10.07;;;0.20;42.90;;;;;;4988027;28;20181;-56
2022/03/11 03:13:30;;;;;;;11.60;10.30;;;0.20;43.00;;;;;;4989768;28;20231;-55
2022/03/11 03:15:56;;;;;;;11.83;10.50;;;0.10;43.10;;;;;;4990340;28;20614;-55
2022/03/11 03:18:21;;;;;;;10.00;9.03;;;0.10;42.70;;;;;;4990298;28;20227;-55
2022/03/11 03:20:47;;;;;;;11.23;9.40;;;0.20;42.60;;;;;;4990744;28;20214;-55
2022/03/11 03:23:12;;;;;;;12.43;9.80;;;0.20;42.10;;;;;;4985791;28;20192;-57
2022/03/11 03:25:38;;;;;;;11.60;10.33;;;0.20;42.20;;;;;;4988703;28;20195;-57
2022/03/11 03:28:04;;;;;;;11.30;10.00;;;0.20;42.70;;;;;;4991128;28;20184;-56
2022/03/11 03:30:29;;;;;;;10.10;9.10;;;0.20;42.80;;;;;;4994985;28;20200;-56
2022/03/11 03:32:55;;;;;;;12.20;9.43;;;0.10;42.60;;;;;;4990115;28;20560;-54
2022/03/11 03:35:21;;;;;;;11.63;10.03;;;0.10;42.20;;;;;;4988775;28;20219;-53
2022/03/11 03:37:46;;;;;;;13.00;10.57;;;0.10;41.90;;;;;;4989884;28;20604;-56
2022/03/11 03:40:12;;;;;;;12.43;10.50;;;0.10;42.20;;;;;;4971915;28;20194;-54
2022/03/11 03:42:38;;;;;;;12.53;10.17;;;0.00;41.90;;;;;;4989504;28;20682;-54
2022/03/11 03:45:04;;;;;;;9.93;8.93;;;0.00;41.90;;;;;;4989911;28;20634;-57
2022/03/11 03:47:29;;;;;;;12.32;10.40;;;0.00;42.00;;;;;;4988910;28;20743;-56
2022/03/11 03:49:55;;;;;;;11.20;9.77;;;0.10;41.70;;;;;;4987372;28;20192;-58
2022/03/11 03:52:21;;;;;;;12.53;10.40;;;0.00;41.90;;;;;;4988184;28;20283;-56
2022/03/11 03:54:46;;;;;;;12.77;10.23;;;0.00;41.90;;;;;;4987129;28;20263;-54
2022/03/11 03:57:12;;;;;;;11.10;9.93;;;0.00;42.10;;;;;;4987927;28;20220;-56
2022/03/11 03:59:39;;;;;;;11.10;9.33;;;0.00;42.10;;;;;;4991939;28;20203;-57
2022/03/11 04:02:04;;;;;;;12.25;9.95;;;0.00;42.00;;;;;;4991776;28;20899;-56
2022/03/11 04:04:30;;;;;;;11.57;9.70;;;0.00;42.20;;;;;;4989260;28;20180;-59
2022/03/11 04:06:56;;;;;;;10.20;9.13;;;0.00;41.90;;;;;;4989531;28;20185;-57
2022/03/11 04:09:21;;;;;;;11.50;10.30;;;-0.10;41.60;;;;;;4989578;28;20206;-57
2022/03/11 04:11:47;;;;;;;11.47;10.27;;;-0.10;41.80;;;;;;4992796;28;20249;-54
2022/03/11 04:14:12;;;;;;;10.37;9.40;;;-0.10;41.70;;;;;;4993884;28;20859;-54
2022/03/11 04:16:38;;;;;;;10.97;9.57;;;-0.10;41.70;;;;;;4987822;28;20208;-54
2022/03/11 04:19:03;;;;;;;10.33;9.30;;;-0.10;41.70;;;;;;4988124;28;20196;-55
2022/03/11 04:21:30;;;;;;;12.57;10.00;;;-0.10;41.60;;;;;;4987214;28;20192;-56
2022/03/11 04:23:55;;;;;;;10.80;9.13;;;-0.10;41.20;;;;;;4989482;28;20222;-55
2022/03/11 04:26:21;;;;;;;10.70;9.60;;;-0.20;40.70;;;;;;4986895;28;20742;-56
2022/03/11 04:28:46;;;;;;;13.53;8.93;;;-0.10;40.80;;;;;;4989153;28;20180;-56
2022/03/11 04:31:12;;;;;;;12.20;10.20;;;-0.10;40.70;;;;;;4988693;28;20184;-56
2022/03/11 04:33:40;;;;;;;12.67;8.77;;;-0.10;40.90;;;;;;4987386;28;20184;-58
2022/03/11 04:36:07;;;;;;;10.45;9.35;;;-0.10;40.70;;;;;;4989198;28;20442;-57
2022/03/11 04:38:33;;;;;;;11.07;9.95;;;-0.10;40.70;;;;;;4992204;28;20564;-58
2022/03/11 04:40:59;;;;;;;11.50;9.40;;;-0.20;40.70;;;;;;4992494;28;20180;-58
2022/03/11 04:43:25;;;;;;;12.25;10.30;;;-0.20;41.20;;;;;;4992980;28;20184;-55
2022/03/11 04:45:51;;;;;;;11.23;9.57;;;-0.20;40.90;;;;;;4990929;28;20243;-56
2022/03/11 04:48:17;;;;;;;12.35;9.73;;;-0.20;40.80;;;;;;4994758;28;20192;-55
2022/03/11 04:50:42;;;;;;;14.07;10.60;;;-0.20;41.40;;;;;;4992121;28;20578;-58
2022/03/11 04:53:08;;;;;;;10.57;9.37;;;-0.30;41.10;;;;;;4992095;28;20223;-55
2022/03/11 04:55:34;;;;;;;13.83;9.70;;;-0.30;41.60;;;;;;4988265;28;20183;-60
2022/03/11 04:57:59;;;;;;;12.40;9.10;;;-0.30;41.20;;;;;;4992005;28;20279;-56
2022/03/11 05:00:25;;;;;;;9.87;8.83;;;-0.30;41.90;;;;;;4991461;28;20231;-57
2022/03/11 05:02:52;;;;;;;10.67;9.57;;;-0.30;42.00;;;;;;4993118;28;20230;-54
2022/03/11 05:05:17;;;;;;;10.32;9.43;;;-0.40;41.60;;;;;;4990997;28;20207;-55
2022/03/11 05:07:43;;;;;;;13.53;10.00;;;-0.40;41.70;;;;;;4990619;28;20192;-57
2022/03/11 05:10:10;;;;;;;10.97;9.63;;;-0.40;42.50;;;;;;4991331;28;20533;-56
2022/03/11 05:12:37;;;;;;;11.00;9.45;;;-0.40;42.30;;;;;;4989015;28;20254;-53
2022/03/11 05:15:04;;;;;;;11.68;9.65;;;-0.50;42.20;;;;;;4990775;28;20557;-54
2022/03/11 05:17:30;;;;;;;12.82;9.80;;;-0.50;42.50;;;;;;4981030;28;20227;-55
2022/03/11 05:19:56;;;;;;;11.95;9.30;;;-0.50;43.40;;;;;;4977508;28;20219;-56
2022/03/11 05:22:22;;;;;;;11.47;9.70;;;-0.50;43.00;;;;;;4969359;28;20192;-57
2022/03/11 05:24:48;;;;;;;10.77;9.60;;;-0.50;43.20;;;;;;4965782;28;20515;-59
2022/03/11 05:27:14;;;;;;;10.70;9.20;;;-0.50;43.00;;;;;;4973501;28;20194;-54
2022/03/11 05:29:42;;;;;;;10.80;8.87;;;-0.50;43.80;;;;;;4978293;28;20944;-54
2022/03/11 05:32:09;;;;;;;13.77;9.65;;;-0.50;43.50;;;;;;4951919;28;20225;-57
2022/03/11 05:34:38;;;;;;;10.85;9.38;;;-0.50;43.40;;;;;;4967085;28;20193;-55
2022/03/11 05:37:05;;;;;;;13.38;9.77;;;-0.50;43.30;;;;;;4970104;28;20209;-53
2022/03/11 05:39:31;;;;;;;10.60;9.55;;;-0.50;43.30;;;;;;4987850;28;20199;-56
2022/03/11 05:41:57;;;;;;;12.23;9.48;;;-0.50;43.50;;;;;;4988863;28;20524;-54
2022/03/11 05:44:23;;;;;;;10.57;9.60;;;-0.50;44.40;;;;;;4980614;28;20178;-56
2022/03/11 05:46:49;;;;;;;12.15;10.30;;;-0.50;44.60;;;;;;4988147;28;20192;-54
2022/03/11 05:49:15;;;;;;;11.70;9.67;;;-0.50;44.30;;;;;;5001277;28;20187;-55
2022/03/11 05:51:40;;;;;;;10.80;9.70;;;-0.50;45.10;;;;;;4991936;28;20202;-56
2022/03/11 05:54:06;;;;;;;14.73;10.27;;;-0.40;45.80;;;;;;4993050;28;20195;-54
2022/03/11 05:56:32;;;;;;;10.93;8.80;;;-0.50;45.20;;;;;;4992311;28;20231;-60
2022/03/11 05:58:58;;;;;;;12.00;9.40;;;-0.50;45.20;;;;;;4966437;28;20177;-58
2022/03/11 06:01:24;;;;;;;9.90;8.90;;;-0.40;45.80;;;;;;4985115;28;20184;-55
2022/03/11 06:03:49;;;;;;;11.33;10.20;;;-0.40;46.10;;;;;;4993854;28;21269;-54
2022/03/11 06:06:15;;;;;;;11.77;9.87;;;-0.40;45.60;;;;;;4992250;28;20193;-56
2022/03/11 06:08:42;;;;;;;13.95;11.13;;;-0.40;45.30;;;;;;4992383;28;20188;-52
2022/03/11 06:11:09;;;;;;;11.40;9.35;;;-0.40;44.60;;;;;;4990818;28;20196;-51
2022/03/11 06:13:35;;;;;;;12.48;9.93;;;-0.40;44.50;;;;;;4992970;28;20339;-54
2022/03/11 06:16:01;;;;;;;12.57;10.13;;;-0.30;44.20;;;;;;4992869;28;20188;-54
2022/03/11 06:18:27;;;;;;;9.93;8.93;;;-0.30;44.40;;;;;;4992696;28;20204;-57
2022/03/11 06:20:53;;;;;;;10.50;9.40;;;-0.30;44.20;;;;;;4992093;28;20203;-52
2022/03/11 06:23:18;;;;;;;11.90;9.63;;;-0.20;44.30;;;;;;4992080;28;20184;-53
2022/03/11 06:25:44;;;;;;;10.90;9.80;;;-0.20;43.90;;;;;;4992749;28;20208;-55
2022/03/11 06:28:09;;;;;;;10.83;9.73;;;-0.20;43.60;;;;;;4992600;28;20540;-52
2022/03/11 06:30:35;;;;;;;10.63;8.70;;;-0.20;43.80;;;;;;4991261;28;20203;-52
2022/03/11 06:33:00;;;;;;;11.00;9.33;;;-0.10;44.50;;;;;;4991246;28;20180;-56
2022/03/11 06:35:26;;;;;;;12.03;10.07;;;-0.10;44.40;;;;;;4991618;28;20199;-55
2022/03/11 06:37:52;;;;;;;11.73;9.77;;;0.00;44.00;;;;;;4991784;28;20211;-56
2022/03/11 06:40:19;;;;;;;11.30;9.50;;;0.00;44.60;;;;;;4991771;28;20934;-57
2022/03/11 06:42:46;;;;;;;13.23;9.10;;;0.10;44.50;;;;;;4992368;28;20188;-55
2022/03/11 06:45:13;;;;;;;12.30;9.68;;;0.00;44.20;;;;;;4992832;28;20181;-50
2022/03/11 06:47:40;;;;;;;11.38;10.30;;;0.10;43.80;;;;;;4980785;28;20180;-55
2022/03/11 06:50:06;;;;;;;12.65;9.65;;;0.10;44.10;;;;;;4997881;28;20187;-54
2022/03/11 06:52:31;;;;;;;10.25;9.25;;;0.10;44.00;;;;;;4970249;28;20659;-53
2022/03/11 06:54:57;;;;;;;10.23;9.17;;;0.10;43.60;;;;;;4993877;28;20192;-55
2022/03/11 06:57:23;;;;;;;10.23;9.23;;;0.20;43.50;;;;;;4991315;28;21033;-58
2022/03/11 06:59:49;;;;;;;12.37;9.17;;;0.20;43.50;;;;;;4990485;28;20440;-56
2022/03/11 07:02:16;;;;;;;12.32;9.55;;;0.30;43.30;;;;;;4990748;28;20175;-55
2022/03/11 07:04:42;;;;;;;11.90;8.80;;;0.30;43.60;;;;;;4991498;28;20184;-52
2022/03/11 07:07:07;;;;;;;11.27;9.77;;;0.40;43.10;;;;;;4991449;28;20630;-51
2022/03/11 07:09:33;;;;;;;12.20;9.67;;;0.50;43.20;;;;;;4990436;28;20446;-56
2022/03/11 07:12:02;;;;;;;9.68;8.48;;;0.60;43.00;;;;;;4991223;28;20240;-55
2022/03/11 07:14:29;;;;;;;10.70;9.60;;;0.60;42.70;;;;;;4990287;28;20731;-54
2022/03/11 07:16:56;;;;;;;10.85;9.80;;;0.70;42.10;;;;;;4991953;28;20242;-52
2022/03/11 07:19:22;;;;;;;11.18;10.02;;;0.70;42.50;;;;;;4991278;28;20157;-50
2022/03/11 07:21:48;;;;;;;10.68;9.60;;;0.80;41.80;;;;;;4991021;28;20173;-56
2022/03/11 07:24:14;;;;;;;10.93;9.87;;;0.90;41.80;;;;;;4990816;28;20391;-52
2022/03/11 07:26:40;;;;;;;10.97;10.07;;;0.90;41.80;;;;;;4990158;28;20180;-54
2022/03/11 07:29:05;;;;;;;12.10;9.90;;;1.00;41.50;;;;;;4990340;28;20619;-56
2022/03/11 07:31:31;;;;;;;10.67;9.67;;;1.10;41.70;;;;;;4995697;28;20447;-53
2022/03/11 07:33:57;;;;;;;11.07;9.87;;;1.20;41.70;;;;;;4996562;28;20442;-57
2022/03/11 07:36:24;;;;;;;11.00;9.77;;;1.30;41.30;;;;;;4997047;28;20558;-53
2022/03/11 07:38:49;;;;;;;10.85;9.75;;;1.30;41.20;;;;;;4999162;28;20185;-56
2022/03/11 07:41:16;;;;;;;12.03;10.80;;;1.40;40.70;;;;;;5000278;28;20168;-54
2022/03/11 07:43:44;;;;;;;14.07;10.38;;;1.60;40.80;;;;;;4995437;28;20214;-56
2022/03/11 07:46:10;;;;;;;12.73;10.40;;;1.60;40.50;;;;;;4989873;28;20236;-56
2022/03/11 07:48:36;;;;;;;10.95;9.77;;;1.70;40.20;;;;;;4990601;28;20604;-54
2022/03/11 07:51:02;;;;;;;13.10;10.33;;;1.70;40.40;;;;;;4992459;28;20259;-56
2022/03/11 07:53:28;;;;;;;11.90;10.00;;;1.80;40.50;;;;;;5001052;28;20289;-54
2022/03/11 07:55:53;;;;;;;11.30;9.60;;;1.80;40.20;;;;;;4974010;28;20242;-54
2022/03/11 07:58:21;;;;;;;13.07;9.80;;;2.00;39.90;;;;;;4990803;28;20478;-55
2022/03/11 08:00:49;;;;;;;11.45;9.90;;;2.10;39.90;;;;;;4991498;28;20216;-57
2022/03/11 08:03:15;;;;;;;11.25;9.35;;;2.20;39.70;;;;;;4989647;28;20199;-57
2022/03/11 08:05:41;;;;;;;10.75;9.65;;;2.30;39.60;;;;;;4991497;28;20643;-57
2022/03/11 08:08:06;;;;;;;11.67;9.53;;;2.40;38.90;;;;;;4990472;28;20172;-53
2022/03/11 08:10:36;;;;;;;14.90;11.70;;;2.50;39.00;;;;;;4988897;28;20188;-52
2022/03/11 08:13:02;;;;;;;11.95;10.45;;;2.60;38.60;;;;;;4998585;28;20555;-57
2022/03/11 08:15:28;;;;;;;13.63;10.70;;;2.80;38.80;;;;;;4998475;28;20183;-54
2022/03/11 08:17:54;;;;;;;12.93;10.33;;;2.90;38.60;;;;;;4999600;28;20259;-54
2022/03/11 08:20:20;;;;;;;11.77;10.70;;;3.10;38.10;;;;;;4997874;28;20502;-54
2022/03/11 08:22:46;;;;;;;12.27;10.70;;;3.20;37.90;;;;;;4991278;28;20430;-53
2022/03/11 08:25:12;;;;;;;14.35;11.38;;;3.40;37.90;;;;;;4983567;28;20184;-57
2022/03/11 08:27:39;;;;;;;15.93;10.57;;;3.70;37.40;;;;;;4997780;28;20245;-56
2022/03/11 08:30:06;;;;;;;14.40;11.05;;;4.00;36.90;;;;;;4998814;28;20471;-56
2022/03/11 08:32:32;;;;;;;12.20;10.82;;;4.30;35.50;;;;;;4992851;28;20621;-54
2022/03/11 08:34:58;;;;;;;11.90;10.60;;;4.70;35.40;;;;;;4989861;28;20212;-55
2022/03/11 08:37:24;;;;;;;12.70;11.48;;;5.30;34.60;;;;;;4989741;28;20192;-54
2022/03/11 08:39:49;;;;;;;12.93;11.00;;;5.70;33.00;;;;;;4989562;28;20195;-56
2022/03/11 08:42:15;;;;;;;11.30;10.27;;;6.10;32.20;;;;;;4990649;28;20184;-55
2022/03/11 08:44:40;;;;;;;12.00;10.80;;;6.20;31.10;;;;;;4981489;28;20192;-56
2022/03/11 08:47:09;;;;;;;12.13;10.90;;;6.50;30.90;;;;;;4989693;28;20184;-57
2022/03/11 08:49:35;;;;;;;12.60;11.30;;;6.70;30.00;;;;;;4975430;28;20243;-57
2022/03/11 08:52:01;;;;;;;12.87;11.50;;;7.10;30.10;;;;;;4988065;28;20829;-57
2022/03/11 08:54:26;;;;;;;12.57;11.27;;;7.40;29.30;;;;;;4989619;28;20954;-56
2022/03/11 08:56:53;;;;;;;12.03;10.83;;;7.70;28.90;;;;;;4990694;28;20212;-59
2022/03/11 08:59:19;;;;;;;13.23;11.93;;;7.80;28.40;;;;;;4989551;28;20185;-57
2022/03/11 09:01:44;;;;;;;12.83;11.70;;;8.10;29.00;;;;;;4988132;28;20435;-56
2022/03/11 09:04:10;;;;;;;12.13;10.93;;;8.20;27.80;;;;;;4992218;28;20668;-56
2022/03/11 09:06:35;;;;;;;11.97;10.77;;;7.90;27.40;;;;;;4997680;28;20214;-56
2022/03/11 09:09:01;;;;;;;14.33;11.20;;;8.10;27.70;;;;;;4998841;28;20651;-56
2022/03/11 09:11:27;;;;;;;11.20;10.20;;;8.10;27.50;;;;;;4980117;28;20275;-57
2022/03/11 09:13:52;;;;;;;12.70;11.30;;;8.50;27.10;;;;;;4984480;28;20475;-56
2022/03/11 09:16:18;;;;;;;12.73;10.53;;;8.60;26.50;;;;;;4987317;28;20184;-55
2022/03/11 09:18:44;;;;;;;11.50;10.40;;;8.10;26.20;;;;;;4997311;28;20215;-59
2022/03/11 09:21:09;;;;;;;11.43;10.33;;;8.00;26.30;;;;;;4997819;28;20186;-56
2022/03/11 09:23:35;;;;;;;11.33;10.20;;;8.50;26.40;;;;;;4994013;28;20207;-55
2022/03/11 09:26:00;;;;;;;11.27;10.10;;;8.60;25.70;;;;;;4994508;28;20247;-56
2022/03/11 09:28:26;;;;;;;10.73;9.80;;;8.60;25.70;;;;;;4999221;28;20203;-57
2022/03/11 09:30:51;;;;;;;10.97;10.07;;;9.00;25.70;;;;;;5000971;28;20188;-53
2022/03/11 09:33:17;;;;;;;11.17;10.00;;;9.00;24.30;;;;;;5001294;28;20216;-57
2022/03/11 09:35:43;;;;;;;10.37;9.37;;;9.30;24.30;;;;;;5004246;28;20678;-56
2022/03/11 09:38:09;;;;;;;10.77;9.87;;;9.40;23.80;;;;;;4999348;28;20219;-57
2022/03/11 09:40:34;;;;;;;13.77;10.43;;;9.30;23.70;;;;;;4999656;28;20191;-57
2022/03/11 09:43:01;;;;;;;11.50;10.40;;;9.70;23.50;;;;;;4997487;28;20180;-58
2022/03/11 09:45:28;;;;;;;10.80;9.80;;;9.60;22.80;;;;;;4997680;28;20183;-58
2022/03/11 09:47:54;;;;;;;11.67;10.47;;;9.60;22.80;;;;;;4991710;28;20518;-58
2022/03/11 09:50:20;;;;;;;11.03;10.03;;;9.70;23.20;;;;;;4992903;28;20439;-57
2022/03/11 09:52:48;;;;;;;10.83;9.83;;;10.00;22.50;;;;;;4989387;28;20423;-55
2022/03/11 09:55:14;;;;;;;11.37;10.37;;;10.30;21.90;;;;;;4994444;28;20655;-57
2022/03/11 09:57:40;;;;;;;11.43;10.33;;;10.10;21.50;;;;;;5007369;28;20473;-59
2022/03/11 10:00:09;;;;;;;11.67;10.53;;;10.40;21.60;;;;;;5002599;28;20259;-58
2022/03/11 10:02:34;;;;;;;11.37;10.27;;;10.90;21.80;;;;;;5001159;28;20944;-56
2022/03/11 10:05:00;;;;;;;12.03;10.93;;;11.30;21.00;;;;;;5002550;28;20418;-57
2022/03/11 10:07:28;;;;;;;12.53;11.33;;;10.90;20.80;;;;;;5007469;28;20192;-56
2022/03/11 10:09:55;;;;;;;10.50;9.57;;;11.20;20.60;;;;;;5004147;28;20203;-54
2022/03/11 10:12:29;;;;;;;10.93;10.00;;;11.10;20.40;;;;;;4983867;28;20459;-55
2022/03/11 10:15:03;;;;;;;11.83;10.83;;;11.90;21.00;;;;;;4992370;28;20474;-57
2022/03/11 10:17:40;;;;;;;12.37;10.60;;;12.30;20.10;;;;;;4981214;28;20522;-55
2022/03/11 10:20:10;;;;;;;11.80;10.70;;;12.80;19.80;;;;;;4998140;28;21275;-58
2022/03/11 10:22:37;;;;;;;11.23;10.23;;;13.10;18.90;;;;;;4992781;28;20493;-57
2022/03/11 10:25:19;;;;;;;12.57;11.27;;;12.20;18.30;;;;;;4989688;28;20865;-58
2022/03/11 10:28:05;;;;;;;11.17;10.27;;;12.60;19.10;;;;;;4986493;28;20476;-57
2022/03/11 10:30:39;;;;;;;11.63;10.60;;;12.40;18.70;;;;;;4981859;28;20728;-51
2022/03/11 10:33:13;;;;;;;12.20;11.10;;;11.70;18.20;;;;;;4993370;28;20423;-57
2022/03/11 10:35:42;;;;;;;11.93;10.83;;;11.10;19.40;;;;;;4991732;28;20450;-55
2022/03/11 10:38:13;;;;;;;11.40;10.30;;;11.80;19.60;;;;;;4997939;28;20463;-57
2022/03/11 10:40:51;;;;;;;11.63;10.53;;;11.50;19.30;;;;;;4991158;28;20515;-57
2022/03/11 10:43:18;;;;;;;11.23;10.17;;;11.90;19.50;;;;;;4995326;28;20430;-57
2022/03/11 10:45:55;;;;;;;12.17;11.07;;;11.80;19.30;;;;;;4998016;28;20427;-58
2022/03/11 10:48:41;;;;;;;11.53;10.53;;;11.80;19.30;;;;;;4988772;28;20454;-55
2022/03/11 10:51:33;;;;;;;11.60;10.57;;;12.00;19.50;;;;;;4988347;28;20485;-53
2022/03/11 10:54:03;;;;;;;13.00;11.27;;;12.10;19.50;;;;;;4988127;28;20431;-55
2022/03/11 10:56:34;;;;;;;11.80;10.70;;;12.50;19.50;;;;;;4990114;28;20411;-56
2022/03/11 10:59:03;;;;;;;12.33;11.30;;;13.10;18.80;;;;;;4991657;28;20529;-58
2022/03/11 11:01:37;;;;;;;11.53;10.53;;;13.50;18.60;;;;;;4985062;28;20438;-58
2022/03/11 11:04:04;;;;;;;12.90;11.60;;;13.40;99.90;;;;;;4991994;28;20420;-56
2022/03/11 11:06:30;;;;;;;11.30;10.33;;;13.40;99.90;;;;;;4992231;28;20466;-57
2022/03/11 11:08:56;;;;;;;12.60;11.47;;;13.80;99.90;;;;;;4975269;28;20440;-56
2022/03/11 11:11:22;;;;;;;12.30;11.20;;;14.10;99.90;;;;;;4980864;28;20192;-57
2022/03/11 11:13:49;;;;;;;11.90;10.80;;;13.70;99.90;;;;;;4974097;28;20474;-59
2022/03/11 11:16:16;;;;;;;11.57;10.53;;;13.90;99.90;;;;;;4999417;28;20438;-57
2022/03/11 11:18:44;;;;;;;11.77;10.67;;;14.20;99.90;;;;;;4996538;28;20570;-55
2022/03/11 11:21:10;;;;;;;12.27;11.10;;;14.90;99.90;;;;;;5002724;28;20529;-57
2022/03/11 11:23:38;;;;;;;12.20;11.10;;;14.40;99.90;;;;;;5000034;28;20517;-55
2022/03/11 11:26:08;;;;;;;12.00;11.00;;;13.90;99.90;;;;;;4997553;28;20407;-59
2022/03/11 11:28:34;;;;;;;12.80;11.60;;;14.50;99.90;;;;;;5005714;28;20506;-56
2022/03/11 11:31:00;;;;;;;12.90;11.70;;;15.20;99.90;;;;;;5004611;28;20439;-54
2022/03/11 11:33:26;;;;;;;11.50;10.47;;;15.60;99.90;;;;;;4991210;28;20953;-57
2022/03/11 11:35:57;;;;;;;12.40;11.27;;;15.60;99.90;;;;;;4993558;28;20453;-56
2022/03/11 11:38:34;;;;;;;12.80;11.40;;;15.90;99.90;;;;;;4999108;28;20473;-55
2022/03/11 11:41:04;;;;;;;12.17;11.07;;;16.50;99.90;;;;;;4974095;28;20489;-57
2022/03/11 11:43:31;;;;;;;12.43;11.40;;;16.90;99.90;;;;;;4991118;28;21227;-52
2022/03/11 11:46:08;;;;;;;11.93;10.93;;;16.40;99.90;;;;;;4990824;28;20479;-55
2022/03/11 11:48:35;;;;;;;13.10;11.90;;;16.50;99.90;;;;;;4982793;28;20495;-56
2022/03/11 11:51:29;;;;;;;12.60;11.50;;;16.40;99.90;;;;;;4990994;28;20822;-54
2022/03/11 11:53:56;;;;;;;13.33;12.13;;;16.80;99.90;;;;;;4980894;28;20432;-58
2022/03/11 11:56:45;;;;;;;13.13;11.93;;;16.80;99.90;;;;;;4990826;28;20417;-56
2022/03/11 11:59:24;;;;;;;13.47;12.27;;;16.70;99.90;;;;;;4989142;28;20494;-56
2022/03/11 12:01:53;;;;;;;12.10;11.10;;;16.80;99.90;;;;;;4988366;28;20423;-56
2022/03/11 12:04:35;;;;;;;12.67;11.50;;;16.00;99.90;;;;;;4988836;28;20411;-57
2022/03/11 12:07:03;;;;;;;13.40;12.20;;;16.70;99.90;;;;;;4988837;28;20417;-58
2022/03/11 12:09:41;;;;;;;13.60;12.50;;;16.90;99.90;;;;;;4974794;28;20447;-58
2022/03/11 12:12:19;;;;;;;12.67;11.57;;;17.00;99.90;;;;;;4973554;28;20409;-57
2022/03/11 12:14:56;;;;;;;13.97;12.60;;;17.20;99.90;;;;;;4970648;28;21079;-57
2022/03/11 12:17:41;;;;;;;13.23;12.13;;;16.70;99.90;;;;;;4971102;28;20966;-55
2022/03/11 12:20:39;;;;;;;13.23;12.13;;;17.00;99.90;;;;;;4971225;28;20865;-56
2022/03/11 12:23:06;;;;;;;14.47;13.13;;;17.90;99.90;;;;;;4964180;28;20428;-57
2022/03/11 12:25:58;;;;;;;13.27;12.07;;;18.20;99.90;;;;;;4973770;28;20419;-58
2022/03/11 12:28:30;;;;;;;14.10;12.90;;;18.20;99.90;;;;;;4968574;28;20431;-57
2022/03/11 12:31:00;;;;;;;13.50;12.30;;;18.20;99.90;;;;;;4978848;28;20420;-58
2022/03/11 12:33:34;;;;;;;13.37;12.17;;;18.20;99.90;;;;;;4988676;28;20442;-55
2022/03/11 12:36:03;;;;;;;14.40;13.20;;;18.00;99.90;;;;;;4990905;28;20474;-58
2022/03/11 12:38:32;;;;;;;15.27;13.77;;;17.70;99.90;;;;;;4969011;28;20472;-59